createdAt,value
2022-11-27T00:02:16.284Z,5.06
2022-11-27T00:04:42.708Z,5.03
2022-11-27T00:07:09.234Z,4.98
2022-11-27T00:09:35.786Z,5.00
2022-11-27T00:12:02.293Z,4.98
2022-11-27T00:14:28.858Z,5.03
2022-11-27T00:16:55.293Z,5.01
2022-11-27T00:19:21.721Z,4.98
2022-11-27T00:21:48.155Z,5.01
2022-11-27T00:24:14.545Z,5.02
2022-11-27T00:26:40.997Z,5.02
2022-11-27T00:29:07.744Z,5.04
2022-11-27T00:31:37.380Z,5.03
2022-11-27T00:34:06.802Z,5.04
2022-11-27T00:36:34.861Z,5.02
2022-11-27T00:39:01.537Z,5.04
2022-11-27T00:41:29.504Z,5.09
2022-11-27T00:43:56.780Z,5.11
2022-11-27T00:46:29.305Z,5.15
2022-11-27T00:48:58.172Z,5.16
2022-11-27T00:51:25.496Z,5.18
2022-11-27T00:53:52.473Z,5.22
2022-11-27T00:56:24.714Z,5.26
2022-11-27T00:58:52.171Z,5.25
2022-11-27T01:01:24.200Z,5.28
2022-11-27T01:03:51.491Z,5.29
2022-11-27T01:06:19.218Z,5.30
2022-11-27T01:08:46.393Z,5.29
2022-11-27T01:11:21.262Z,5.31
2022-11-27T01:13:48.631Z,5.34
2022-11-27T01:16:21.172Z,5.39
2022-11-27T01:18:50.672Z,5.38
2022-11-27T01:21:20.159Z,5.35
2022-11-27T01:23:47.661Z,5.35
2022-11-27T01:26:14.745Z,5.34
2022-11-27T01:28:41.169Z,5.36
2022-11-27T01:31:12.539Z,5.37
2022-11-27T01:33:39.044Z,5.41
2022-11-27T01:36:07.686Z,5.43
2022-11-27T01:38:34.615Z,5.38
2022-11-27T01:41:07.447Z,5.35
2022-11-27T01:43:39.976Z,5.30
2022-11-27T01:46:17.909Z,5.28
2022-11-27T01:48:44.852Z,5.29
2022-11-27T01:51:11.396Z,5.31
2022-11-27T01:53:37.759Z,5.32
2022-11-27T01:56:05.473Z,5.33
2022-11-27T01:58:33.482Z,5.35
2022-11-27T02:01:00.346Z,5.36
2022-11-27T02:03:27.412Z,5.32
2022-11-27T02:05:53.817Z,5.34
2022-11-27T02:08:20.315Z,5.33
2022-11-27T02:11:11.282Z,5.36
2022-11-27T02:14:03.165Z,5.36
2022-11-27T02:16:52.858Z,5.36
2022-11-27T02:19:29.110Z,5.37
2022-11-27T02:22:10.651Z,5.38
2022-11-27T02:25:04.062Z,5.42
2022-11-27T02:28:08.149Z,5.46
2022-11-27T02:30:40.846Z,5.48
2022-11-27T02:33:11.519Z,5.53
2022-11-27T02:35:44.489Z,5.52
2022-11-27T02:38:17.001Z,5.54
2022-11-27T02:40:52.573Z,5.52
2022-11-27T02:43:25.688Z,5.50
2022-11-27T02:45:52.904Z,5.49
2022-11-27T02:48:30.338Z,5.52
2022-11-27T02:50:56.767Z,5.50
2022-11-27T02:53:29.345Z,5.54
2022-11-27T02:55:58.509Z,5.56
2022-11-27T02:58:27.407Z,5.58
2022-11-27T03:00:55.596Z,5.62
2022-11-27T03:03:26.531Z,5.64
2022-11-27T03:05:58.288Z,5.63
2022-11-27T03:08:33.151Z,5.64
2022-11-27T03:11:10.192Z,5.65
2022-11-27T03:13:43.812Z,5.66
2022-11-27T03:16:34.944Z,5.65
2022-11-27T03:19:17.438Z,5.61
2022-11-27T03:21:46.303Z,5.60
2022-11-27T03:24:13.043Z,5.58
2022-11-27T03:26:40.365Z,5.60
2022-11-27T03:29:12.208Z,5.60
2022-11-27T03:31:39.438Z,5.57
2022-11-27T03:34:05.878Z,5.61
2022-11-27T03:36:32.271Z,5.63
2022-11-27T03:38:58.740Z,5.64
2022-11-27T03:41:30.648Z,5.66
2022-11-27T03:44:17.210Z,5.67
2022-11-27T03:46:50.795Z,5.64
2022-11-27T03:49:26.054Z,5.66
2022-11-27T03:52:03.951Z,5.67
2022-11-27T03:54:39.560Z,5.67
2022-11-27T03:57:17.597Z,5.64
2022-11-27T03:59:47.915Z,5.63
2022-11-27T04:02:15.724Z,5.66
2022-11-27T04:04:42.386Z,5.70
2022-11-27T04:07:17.354Z,5.68
2022-11-27T04:09:43.784Z,5.63
2022-11-27T04:12:10.176Z,5.65
2022-11-27T04:14:36.551Z,5.63
2022-11-27T04:17:02.972Z,5.67
2022-11-27T04:19:29.359Z,5.69
2022-11-27T04:21:55.827Z,5.67
2022-11-27T04:24:22.202Z,5.67
2022-11-27T04:26:48.565Z,5.69
2022-11-27T04:29:14.935Z,5.70
2022-11-27T04:31:41.447Z,5.67
2022-11-27T04:34:07.846Z,5.64
2022-11-27T04:36:38.972Z,5.65
2022-11-27T04:39:06.006Z,5.64
2022-11-27T04:41:32.383Z,5.63
2022-11-27T04:43:58.793Z,5.61
2022-11-27T04:46:25.238Z,5.61
2022-11-27T04:48:51.691Z,5.60
2022-11-27T04:51:18.098Z,5.58
2022-11-27T04:53:44.508Z,5.56
2022-11-27T04:56:10.933Z,5.54
2022-11-27T04:58:37.308Z,5.54
2022-11-27T05:01:04.484Z,5.54
2022-11-27T05:03:30.859Z,5.52
2022-11-27T05:05:58.231Z,5.49
2022-11-27T05:08:25.631Z,5.47
2022-11-27T05:11:06.286Z,5.44
2022-11-27T05:13:33.170Z,5.41
2022-11-27T05:15:59.889Z,5.40
2022-11-27T05:18:26.826Z,5.38
2022-11-27T05:20:58.064Z,5.37
2022-11-27T05:23:24.587Z,5.35
2022-11-27T05:25:51.028Z,5.33
2022-11-27T05:28:21.117Z,5.28
2022-11-27T05:30:50.428Z,5.25
2022-11-27T05:33:18.448Z,5.22
2022-11-27T05:35:45.747Z,5.21
2022-11-27T05:38:12.862Z,5.20
2022-11-27T05:40:39.622Z,5.20
2022-11-27T05:43:06.062Z,5.18
2022-11-27T05:45:32.461Z,5.15
2022-11-27T05:47:58.835Z,5.15
2022-11-27T05:50:25.229Z,5.16
2022-11-27T05:52:51.674Z,5.13
2022-11-27T05:55:18.012Z,5.13
2022-11-27T05:57:44.416Z,5.14
2022-11-27T06:00:11.569Z,5.12
2022-11-27T06:02:38.055Z,5.10
2022-11-27T06:05:04.819Z,5.09
2022-11-27T06:07:32.013Z,5.09
2022-11-27T06:09:58.452Z,5.10
2022-11-27T06:12:25.068Z,5.10
2022-11-27T06:14:51.476Z,5.09
2022-11-27T06:17:17.948Z,5.08
2022-11-27T06:19:44.303Z,5.08
2022-11-27T06:22:10.830Z,5.09
2022-11-27T06:24:37.223Z,5.10
2022-11-27T06:27:03.833Z,5.11
2022-11-27T06:29:30.360Z,5.12
2022-11-27T06:31:56.797Z,5.10
2022-11-27T06:34:23.225Z,5.11
2022-11-27T06:36:50.646Z,5.10
2022-11-27T06:39:17.181Z,5.11
2022-11-27T06:41:43.588Z,5.11
2022-11-27T06:44:10.488Z,5.09
2022-11-27T06:46:37.149Z,5.10
2022-11-27T06:49:03.734Z,5.09
2022-11-27T06:51:32.403Z,5.09
2022-11-27T06:54:00.194Z,5.09
2022-11-27T06:56:29.298Z,5.08
2022-11-27T06:59:00.092Z,5.08
2022-11-27T07:01:29.014Z,5.10
2022-11-27T07:03:56.122Z,5.09
2022-11-27T07:06:24.769Z,5.09
2022-11-27T07:08:51.508Z,5.08
2022-11-27T07:11:20.718Z,5.08
2022-11-27T07:13:48.978Z,5.09
2022-11-27T07:16:16.782Z,5.10
2022-11-27T07:18:49.434Z,5.08
2022-11-27T07:21:16.157Z,5.10
2022-11-27T07:23:42.940Z,5.09
2022-11-27T07:26:11.802Z,5.10
2022-11-27T07:28:38.718Z,5.09
2022-11-27T07:31:05.455Z,5.13
2022-11-27T07:33:32.412Z,5.12
2022-11-27T07:36:06.739Z,5.13
2022-11-27T07:38:33.847Z,5.17
2022-11-27T07:41:01.508Z,5.18
2022-11-27T07:43:28.622Z,5.18
2022-11-27T07:45:55.057Z,5.18
2022-11-27T07:48:21.541Z,5.20
2022-11-27T07:50:47.940Z,5.20
2022-11-27T07:53:14.611Z,5.20
2022-11-27T07:55:41.687Z,5.21
2022-11-27T07:58:08.913Z,5.20
2022-11-27T08:00:36.060Z,5.21
2022-11-27T08:03:02.516Z,5.20
2022-11-27T08:05:29.366Z,5.20
2022-11-27T08:07:56.018Z,5.21
2022-11-27T08:10:22.426Z,5.22
2022-11-27T08:12:48.835Z,5.24
2022-11-27T08:15:15.261Z,5.24
2022-11-27T08:17:41.596Z,5.25
2022-11-27T08:20:08.101Z,5.27
2022-11-27T08:22:35.596Z,5.26
2022-11-27T08:25:01.974Z,5.26
2022-11-27T08:27:28.399Z,5.27
2022-11-27T08:29:54.718Z,5.27
2022-11-27T08:32:21.152Z,5.28
2022-11-27T08:34:47.500Z,5.27
2022-11-27T08:37:13.942Z,5.28
2022-11-27T08:39:40.414Z,5.30
2022-11-27T08:42:06.752Z,5.30
2022-11-27T08:44:33.092Z,5.31
2022-11-27T08:46:59.422Z,5.31
2022-11-27T08:49:25.875Z,5.31
2022-11-27T08:51:52.222Z,5.30
2022-11-27T08:54:18.635Z,5.29
2022-11-27T08:56:44.980Z,5.29
2022-11-27T08:59:11.383Z,5.26
2022-11-27T09:01:37.848Z,5.27
2022-11-27T09:04:04.501Z,5.26
2022-11-27T09:06:33.147Z,5.26
2022-11-27T09:09:00.837Z,5.25
2022-11-27T09:11:29.292Z,5.24
2022-11-27T09:13:55.717Z,5.24
2022-11-27T09:16:22.695Z,5.22
2022-11-27T09:18:51.604Z,5.24
2022-11-27T09:21:20.053Z,5.23
2022-11-27T09:23:46.918Z,5.24
2022-11-27T09:26:16.221Z,5.25
2022-11-27T09:28:43.976Z,5.25
2022-11-27T09:31:14.002Z,5.27
2022-11-27T09:33:41.580Z,5.28
2022-11-27T09:36:14.911Z,5.29
2022-11-27T09:38:42.549Z,5.32
2022-11-27T09:41:11.989Z,5.33
2022-11-27T09:44:01.831Z,5.33
2022-11-27T09:46:34.821Z,5.35
2022-11-27T09:49:05.337Z,5.37
2022-11-27T09:51:37.278Z,5.41
2022-11-27T09:54:30.008Z,5.40
2022-11-27T09:56:58.608Z,5.42
2022-11-27T09:59:39.300Z,5.45
2022-11-27T10:02:20.529Z,5.45
2022-11-27T10:05:12.189Z,5.45
2022-11-27T10:08:06.606Z,5.45
2022-11-27T10:10:41.029Z,5.48
2022-11-27T10:13:10.577Z,5.50
2022-11-27T10:15:55.757Z,5.51
2022-11-27T10:18:42.021Z,5.52
2022-11-27T10:21:31.558Z,5.53
2022-11-27T10:24:17.491Z,5.55
2022-11-27T10:26:47.921Z,5.58
2022-11-27T10:29:47.335Z,5.60
2022-11-27T10:32:52.744Z,5.60
2022-11-27T10:35:16.529Z,5.61
2022-11-27T10:37:50.995Z,5.61
2022-11-27T10:40:26.394Z,5.61
2022-11-27T10:43:15.807Z,5.64
2022-11-27T10:45:54.759Z,5.65
2022-11-27T10:48:22.216Z,5.66
2022-11-27T10:50:49.100Z,5.67
2022-11-27T10:53:33.605Z,5.71
2022-11-27T10:56:11.899Z,5.73
2022-11-27T10:58:51.916Z,5.76
2022-11-27T11:01:21.640Z,5.82
2022-11-27T11:03:48.480Z,5.83
2022-11-27T11:06:21.494Z,5.82
2022-11-27T11:09:01.674Z,5.80
2022-11-27T11:11:28.287Z,5.81
2022-11-27T11:13:55.705Z,5.83
2022-11-27T11:16:27.296Z,5.85
2022-11-27T11:18:57.664Z,5.82
2022-11-27T11:21:34.280Z,5.84
2022-11-27T11:24:28.330Z,5.85
2022-11-27T11:27:07.142Z,5.86
2022-11-27T11:29:42.172Z,5.88
2022-11-27T11:32:12.986Z,5.86
2022-11-27T11:35:00.778Z,5.89
2022-11-27T11:37:36.007Z,5.90
2022-11-27T11:40:23.352Z,5.90
2022-11-27T11:42:59.047Z,5.89
2022-11-27T11:45:30.022Z,5.90
2022-11-27T11:48:18.505Z,5.90
2022-11-27T11:50:52.914Z,5.90
2022-11-27T11:53:39.489Z,5.91
2022-11-27T11:56:22.707Z,5.91
2022-11-27T11:58:56.017Z,5.92
2022-11-27T12:01:36.458Z,5.94
2022-11-27T12:04:22.023Z,5.96
2022-11-27T12:06:58.081Z,6.00
2022-11-27T12:09:41.260Z,6.04
2022-11-27T12:12:52.842Z,6.04
2022-11-27T12:15:29.647Z,6.06
2022-11-27T12:18:13.821Z,6.08
2022-11-27T12:20:51.573Z,6.07
2022-11-27T12:23:40.249Z,6.08
2022-11-27T12:26:09.386Z,6.09
2022-11-27T12:28:57.509Z,6.08
2022-11-27T12:32:00.194Z,6.06
2022-11-27T12:34:38.466Z,6.09
2022-11-27T12:37:18.548Z,6.06
2022-11-27T12:39:55.184Z,6.03
2022-11-27T12:42:32.513Z,6.00
2022-11-27T12:45:12.238Z,5.99
2022-11-27T12:47:55.420Z,6.02
2022-11-27T12:50:32.324Z,6.04
2022-11-27T12:53:26.860Z,6.01
2022-11-27T12:56:03.657Z,6.01
2022-11-27T12:58:38.917Z,6.02
2022-11-27T13:01:16.998Z,6.00
2022-11-27T13:04:04.336Z,6.01
2022-11-27T13:06:35.395Z,6.00
2022-11-27T13:09:13.272Z,5.99
2022-11-27T13:11:41.600Z,6.00
2022-11-27T13:14:15.617Z,6.00
2022-11-27T13:17:09.987Z,6.03
2022-11-27T13:19:43.776Z,6.04
2022-11-27T13:22:14.535Z,6.01
2022-11-27T13:24:41.193Z,6.02
2022-11-27T13:27:15.908Z,6.04
2022-11-27T13:29:59.708Z,6.05
2022-11-27T13:32:30.563Z,6.05
2022-11-27T13:35:02.725Z,6.05
2022-11-27T13:37:34.278Z,6.03
2022-11-27T13:40:04.955Z,6.02
2022-11-27T13:42:35.456Z,6.01
2022-11-27T13:45:06.668Z,6.01
2022-11-27T13:47:43.696Z,5.99
2022-11-27T13:50:16.415Z,5.98
2022-11-27T13:52:57.204Z,5.96
2022-11-27T13:55:31.491Z,5.95
2022-11-27T13:57:59.682Z,5.95
2022-11-27T14:00:43.870Z,5.95
2022-11-27T14:03:30.135Z,5.94
2022-11-27T14:05:57.493Z,5.94
2022-11-27T14:08:33.651Z,5.93
2022-11-27T14:11:12.779Z,5.92
2022-11-27T14:13:43.341Z,5.91
2022-11-27T14:16:31.831Z,5.89
2022-11-27T14:19:05.799Z,5.89
2022-11-27T14:21:35.654Z,5.87
2022-11-27T14:24:06.859Z,5.87
2022-11-27T14:26:33.280Z,5.86
2022-11-27T14:29:00.628Z,5.87
2022-11-27T14:31:31.427Z,5.85
2022-11-27T14:36:44.613Z,5.86
2022-11-27T14:39:33.690Z,5.86
2022-11-27T14:42:01.095Z,5.87
2022-11-27T14:44:28.329Z,5.87
2022-11-27T14:46:56.867Z,5.87
2022-11-27T14:49:26.272Z,5.87
2022-11-27T14:51:54.316Z,5.86
2022-11-27T14:54:25.859Z,5.88
2022-11-27T14:56:53.223Z,5.89
2022-11-27T14:59:22.700Z,5.88
2022-11-27T15:02:18.079Z,5.89
2022-11-27T15:04:46.515Z,5.90
2022-11-27T15:07:27.687Z,5.90
2022-11-27T15:09:59.654Z,5.86
2022-11-27T15:12:34.829Z,5.86
2022-11-27T15:15:30.499Z,5.87
2022-11-27T15:18:00.341Z,5.86
2022-11-27T15:20:33.902Z,5.86
2022-11-27T15:23:01.085Z,5.85
2022-11-27T15:25:33.330Z,5.84
2022-11-27T15:27:59.805Z,5.84
2022-11-27T15:30:26.328Z,5.86
2022-11-27T15:32:55.259Z,5.85
2022-11-27T15:35:26.421Z,5.84
2022-11-27T15:37:57.769Z,5.82
2022-11-27T15:40:28.059Z,5.83
2022-11-27T15:42:54.462Z,5.81
2022-11-27T15:45:21.175Z,5.82
2022-11-27T15:47:47.585Z,5.80
2022-11-27T15:50:15.774Z,5.79
2022-11-27T15:52:42.531Z,5.79
2022-11-27T15:55:15.676Z,5.80
2022-11-27T15:57:42.514Z,5.79
2022-11-27T16:00:10.142Z,5.76
2022-11-27T16:02:37.805Z,5.75
2022-11-27T16:05:05.716Z,5.75
2022-11-27T16:07:32.286Z,5.75
2022-11-27T16:09:58.689Z,5.75
2022-11-27T16:12:25.138Z,5.76
2022-11-27T16:14:51.573Z,5.75
2022-11-27T16:17:18.059Z,5.73
2022-11-27T16:19:44.410Z,5.71
2022-11-27T16:22:10.806Z,5.70
2022-11-27T16:24:37.972Z,5.70
2022-11-27T16:27:04.733Z,5.69
2022-11-27T16:29:31.179Z,5.67
2022-11-27T16:31:57.588Z,5.67
2022-11-27T16:34:24.082Z,5.66
2022-11-27T16:36:50.472Z,5.67
2022-11-27T16:39:17.503Z,5.66
2022-11-27T16:41:43.924Z,5.66
2022-11-27T16:44:13.358Z,5.67
2022-11-27T16:46:40.912Z,5.67
2022-11-27T16:49:07.468Z,5.68
2022-11-27T16:51:35.003Z,5.68
2022-11-27T16:54:03.364Z,5.67
2022-11-27T16:56:30.862Z,5.69
2022-11-27T16:59:02.817Z,5.68
2022-11-27T17:01:37.052Z,5.71
2022-11-27T17:04:07.141Z,5.74
2022-11-27T17:06:33.825Z,5.74
2022-11-27T17:09:04.017Z,5.76
2022-11-27T17:11:33.875Z,5.75
2022-11-27T17:14:03.167Z,5.77
2022-11-27T17:16:29.586Z,5.76
2022-11-27T17:18:56.118Z,5.74
2022-11-27T17:21:28.247Z,5.74
2022-11-27T17:23:56.851Z,5.72
2022-11-27T17:26:24.920Z,5.72
2022-11-27T17:28:51.872Z,5.70
2022-11-27T17:31:20.812Z,5.69
2022-11-27T17:33:47.747Z,5.67
2022-11-27T17:36:14.566Z,5.66
2022-11-27T17:38:41.040Z,5.65
2022-11-27T17:41:12.748Z,5.64
2022-11-27T17:43:40.739Z,5.63
2022-11-27T17:46:09.395Z,5.63
2022-11-27T17:48:36.621Z,5.62
2022-11-27T17:51:03.816Z,5.62
2022-11-27T17:53:30.299Z,5.62
2022-11-27T17:56:02.303Z,5.61
2022-11-27T17:58:28.726Z,5.60
2022-11-27T18:00:55.180Z,5.59
2022-11-27T18:03:21.603Z,5.58
2022-11-27T18:05:48.020Z,5.58
2022-11-27T18:08:14.391Z,5.59
2022-11-27T18:10:40.793Z,5.60
2022-11-27T18:13:07.139Z,5.58
2022-11-27T18:15:34.539Z,5.56
2022-11-27T18:18:00.944Z,5.56
2022-11-27T18:20:27.716Z,5.55
2022-11-27T18:22:54.164Z,5.56
2022-11-27T18:25:20.546Z,5.55
2022-11-27T18:27:46.991Z,5.56
2022-11-27T18:30:13.965Z,5.55
2022-11-27T18:32:40.316Z,5.56
2022-11-27T18:35:07.243Z,5.55
2022-11-27T18:37:38.423Z,5.55
2022-11-27T18:40:07.062Z,5.54
2022-11-27T18:42:33.483Z,5.53
2022-11-27T18:45:00.210Z,5.52
2022-11-27T18:47:27.170Z,5.50
2022-11-27T18:49:55.598Z,5.51
2022-11-27T18:52:22.165Z,5.50
2022-11-27T18:54:48.550Z,5.50
2022-11-27T18:57:14.969Z,5.49
2022-11-27T18:59:43.993Z,5.48
2022-11-27T19:02:11.059Z,5.49
2022-11-27T19:04:37.694Z,5.47
2022-11-27T19:07:04.255Z,5.46
2022-11-27T19:09:30.663Z,5.46
2022-11-27T19:11:57.016Z,5.45
2022-11-27T19:14:23.388Z,5.45
2022-11-27T19:16:50.737Z,5.43
2022-11-27T19:22:09.132Z,5.40
2022-11-27T19:24:36.644Z,5.40
2022-11-27T19:27:03.546Z,5.39
2022-11-27T19:29:30.003Z,5.39
2022-11-27T19:31:58.745Z,5.39
2022-11-27T19:34:25.386Z,5.39
2022-11-27T19:36:52.883Z,5.38
2022-11-27T19:39:19.301Z,5.36
2022-11-27T19:41:45.820Z,5.36
2022-11-27T19:44:13.215Z,5.36
2022-11-27T19:46:40.341Z,5.35
2022-11-27T19:49:13.360Z,5.35
2022-11-27T19:51:40.649Z,5.34
2022-11-27T19:54:10.294Z,5.35
2022-11-27T19:56:39.508Z,5.35
2022-11-27T19:59:06.655Z,5.34
2022-11-27T20:01:33.089Z,5.34
2022-11-27T20:03:59.880Z,5.33
2022-11-27T20:06:26.872Z,5.31
2022-11-27T20:08:57.860Z,5.30
2022-11-27T20:11:26.685Z,5.31
2022-11-27T20:13:57.882Z,5.30
2022-11-27T20:16:24.659Z,5.29
2022-11-27T20:18:51.109Z,5.29
2022-11-27T20:21:20.008Z,5.29
2022-11-27T20:23:48.087Z,5.28
2022-11-27T20:26:18.349Z,5.29
2022-11-27T20:28:44.850Z,5.28
2022-11-27T20:31:18.253Z,5.27
2022-11-27T20:33:44.782Z,5.28
2022-11-27T20:36:16.338Z,5.28
2022-11-27T20:38:42.933Z,5.28
2022-11-27T20:41:11.106Z,5.28
2022-11-27T20:43:37.850Z,5.29
2022-11-27T20:46:05.564Z,5.28
2022-11-27T20:48:31.976Z,5.28
2022-11-27T20:51:08.612Z,5.28
2022-11-27T20:53:36.315Z,5.27
2022-11-27T20:56:08.002Z,5.27
2022-11-27T20:58:36.125Z,5.27
2022-11-27T21:01:02.665Z,5.26
2022-11-27T21:03:30.231Z,5.26
2022-11-27T21:05:56.690Z,5.26
2022-11-27T21:08:23.147Z,5.26
2022-11-27T21:10:50.488Z,5.26
2022-11-27T21:13:17.244Z,5.25
2022-11-27T21:15:47.562Z,5.24
2022-11-27T21:18:14.441Z,5.25
2022-11-27T21:20:42.176Z,5.25
2022-11-27T21:23:08.629Z,5.25
2022-11-27T21:25:37.003Z,5.26
2022-11-27T21:28:03.556Z,5.27
2022-11-27T21:30:29.972Z,5.25
2022-11-27T21:32:56.373Z,5.25
2022-11-27T21:35:25.447Z,5.25
2022-11-27T21:37:53.911Z,5.26
2022-11-27T21:40:20.363Z,5.24
2022-11-27T21:42:46.844Z,5.22
2022-11-27T21:45:13.261Z,5.24
2022-11-27T21:47:39.614Z,5.24
2022-11-27T21:50:06.807Z,5.24
2022-11-27T21:52:33.223Z,5.23
2022-11-27T21:54:59.597Z,5.23
2022-11-27T21:57:25.983Z,5.23
2022-11-27T21:59:52.375Z,5.22
2022-11-27T22:02:18.753Z,5.21
2022-11-27T22:04:45.311Z,5.21
2022-11-27T22:07:11.808Z,5.21
2022-11-27T22:09:38.299Z,5.22
2022-11-27T22:12:04.814Z,5.21
2022-11-27T22:14:31.151Z,5.20
2022-11-27T22:16:57.565Z,5.20
2022-11-27T22:19:23.953Z,5.20
2022-11-27T22:21:50.398Z,5.20
2022-11-27T22:24:19.617Z,5.20
2022-11-27T22:26:47.184Z,5.21
2022-11-27T22:29:13.599Z,5.21
2022-11-27T22:31:40.090Z,5.21
2022-11-27T22:34:06.490Z,5.22
2022-11-27T22:36:34.388Z,5.21
2022-11-27T22:39:03.524Z,5.20
2022-11-27T22:41:31.987Z,5.20
2022-11-27T22:44:00.223Z,5.20
2022-11-27T22:46:33.883Z,5.21
2022-11-27T22:49:02.014Z,5.21
2022-11-27T22:51:30.138Z,5.20
2022-11-27T22:53:56.491Z,5.21
2022-11-27T22:56:24.463Z,5.21
2022-11-27T22:58:58.217Z,5.21
2022-11-27T23:01:28.865Z,5.21
2022-11-27T23:03:55.886Z,5.21
2022-11-27T23:06:23.456Z,5.20
2022-11-27T23:08:50.716Z,5.21
2022-11-27T23:11:21.375Z,5.21
2022-11-27T23:13:49.873Z,5.20
2022-11-27T23:16:17.354Z,5.20
2022-11-27T23:18:43.812Z,5.21
2022-11-27T23:21:15.275Z,5.21
2022-11-27T23:23:42.264Z,5.20
2022-11-27T23:26:18.690Z,5.20
2022-11-27T23:28:46.299Z,5.21
2022-11-27T23:31:34.353Z,5.21
2022-11-27T23:34:02.863Z,5.20
2022-11-27T23:36:31.058Z,5.21
2022-11-27T23:39:03.519Z,5.21
2022-11-27T23:41:30.798Z,5.21
2022-11-27T23:43:57.994Z,5.20
2022-11-27T23:46:26.809Z,5.21
2022-11-27T23:48:55.059Z,5.22
2022-11-27T23:51:24.472Z,5.22
2022-11-27T23:53:51.202Z,5.22
2022-11-27T23:56:21.040Z,5.20
2022-11-27T23:58:48.137Z,5.22
